createdAt,value
2023-01-19T00:01:46.107Z,99314.84
2023-01-19T00:04:14.249Z,99319.13
2023-01-19T00:06:42.432Z,99311.97
2023-01-19T00:09:10.509Z,99311.81
2023-01-19T00:11:38.953Z,99323.22
2023-01-19T00:14:07.044Z,99320.53
2023-01-19T00:16:37.468Z,99322.16
2023-01-19T00:19:05.758Z,99312.28
2023-01-19T00:21:33.872Z,99327.19
2023-01-19T00:24:01.965Z,99324.47
2023-01-19T00:26:30.027Z,99324.34
2023-01-19T00:28:58.191Z,99322.41
2023-01-19T00:31:26.393Z,99318.75
2023-01-19T00:33:55.891Z,99321.25
2023-01-19T00:36:23.981Z,99315.69
2023-01-19T00:38:52.072Z,99299.63
2023-01-19T00:41:40.279Z,99304.69
2023-01-19T00:44:08.573Z,99299.97
2023-01-19T00:46:36.622Z,99307.78
2023-01-19T00:49:06.561Z,99312.00
2023-01-19T00:51:34.635Z,99307.44
2023-01-19T00:54:05.061Z,99319.75
2023-01-19T00:56:33.202Z,99311.56
2023-01-19T00:59:01.352Z,99310.56
2023-01-19T01:01:45.123Z,99288.34
2023-01-19T01:04:15.732Z,99290.94
2023-01-19T01:06:43.968Z,99300.53
2023-01-19T01:09:12.855Z,99295.22
2023-01-19T01:11:41.239Z,99303.97
2023-01-19T01:14:10.035Z,99300.53
2023-01-19T01:16:38.336Z,99301.31
2023-01-19T01:19:06.515Z,99301.31
2023-01-19T01:21:37.363Z,99312.88
2023-01-19T01:24:05.811Z,99312.00
2023-01-19T01:26:33.903Z,99303.97
2023-01-19T01:29:02.242Z,99307.41
2023-01-19T01:31:30.939Z,99304.59
2023-01-19T01:33:59.045Z,99323.16
2023-01-19T01:36:29.167Z,99304.56
2023-01-19T01:38:58.733Z,99325.69
2023-01-19T01:41:27.342Z,99306.09
2023-01-19T01:43:58.605Z,99299.94
2023-01-19T01:46:28.703Z,99312.13
2023-01-19T01:49:01.690Z,99308.44
2023-01-19T01:51:33.838Z,99309.25
2023-01-19T01:54:09.508Z,99297.72
2023-01-19T01:56:40.777Z,99306.44
2023-01-19T01:59:12.073Z,99301.91
2023-01-19T02:01:58.038Z,99301.59
2023-01-19T02:04:26.737Z,99301.56
2023-01-19T02:07:12.399Z,99287.34
2023-01-19T02:09:59.367Z,99295.22
2023-01-19T02:12:45.521Z,99299.53
2023-01-19T02:15:18.456Z,99296.88
2023-01-19T02:17:47.307Z,99291.47
2023-01-19T02:20:16.119Z,99288.91
2023-01-19T02:22:49.036Z,99301.16
2023-01-19T02:25:19.999Z,99302.09
2023-01-19T02:27:48.370Z,99297.66
2023-01-19T02:30:17.454Z,99295.94
2023-01-19T02:32:45.815Z,99296.88
2023-01-19T02:35:14.153Z,99295.94
2023-01-19T02:37:44.073Z,99295.94
2023-01-19T02:40:14.276Z,99299.44
2023-01-19T02:42:45.889Z,99298.59
2023-01-19T02:45:15.295Z,99294.28
2023-01-19T02:47:45.575Z,99297.81
2023-01-19T02:50:41.853Z,99302.25
2023-01-19T02:53:48.350Z,99302.25
2023-01-19T02:56:40.705Z,99300.47
2023-01-19T02:59:16.724Z,99295.16
2023-01-19T03:01:54.361Z,99296.88
2023-01-19T03:04:28.906Z,99299.53
2023-01-19T03:07:02.487Z,99295.00
2023-01-19T03:09:33.757Z,99289.69
2023-01-19T03:12:06.080Z,99284.38
2023-01-19T03:14:40.260Z,99290.47
2023-01-19T03:17:11.290Z,99284.38
2023-01-19T03:19:41.531Z,99287.03
2023-01-19T03:22:13.098Z,99284.38
2023-01-19T03:24:43.368Z,99278.13
2023-01-19T03:27:14.822Z,99286.94
2023-01-19T03:29:49.344Z,99291.41
2023-01-19T03:32:19.113Z,99285.22
2023-01-19T03:34:48.368Z,99291.41
2023-01-19T03:37:17.277Z,99284.22
2023-01-19T03:39:45.531Z,99287.72
2023-01-19T03:42:17.386Z,99284.22
2023-01-19T03:44:50.531Z,99290.28
2023-01-19T03:47:19.472Z,99285.78
2023-01-19T03:49:48.967Z,99284.78
2023-01-19T03:52:17.054Z,99290.09
2023-01-19T03:54:45.242Z,99288.28
2023-01-19T03:57:13.425Z,99280.31
2023-01-19T03:59:41.491Z,99267.81
2023-01-19T04:02:11.092Z,99265.09
2023-01-19T04:04:40.115Z,99265.94
2023-01-19T04:07:10.869Z,99254.44
2023-01-19T04:09:38.944Z,99272.88
2023-01-19T04:12:07.318Z,99259.69
2023-01-19T04:14:35.368Z,99265.84
2023-01-19T04:17:03.508Z,99262.34
2023-01-19T04:19:32.946Z,99269.28
2023-01-19T04:22:01.988Z,99262.22
2023-01-19T04:24:30.264Z,99281.59
2023-01-19T04:26:58.381Z,99279.78
2023-01-19T04:29:26.467Z,99283.28
2023-01-19T04:31:54.512Z,99284.94
2023-01-19T04:34:22.706Z,99285.78
2023-01-19T04:36:52.305Z,99278.69
2023-01-19T04:39:20.401Z,99283.13
2023-01-19T04:41:48.470Z,99292.75
2023-01-19T04:44:16.552Z,99290.00
2023-01-19T04:46:44.805Z,99279.38
2023-01-19T04:49:13.130Z,99281.09
2023-01-19T04:51:41.333Z,99274.91
2023-01-19T04:54:10.836Z,99273.13
2023-01-19T04:56:40.807Z,99281.09
2023-01-19T04:59:08.924Z,99284.69
2023-01-19T05:01:37.213Z,99282.03
2023-01-19T05:04:07.033Z,99291.72
2023-01-19T05:06:35.589Z,99287.22
2023-01-19T05:09:03.896Z,99277.50
2023-01-19T05:11:33.381Z,99280.09
2023-01-19T05:14:01.511Z,99289.78
2023-01-19T05:16:29.653Z,99290.56
2023-01-19T05:18:57.883Z,99286.97
2023-01-19T05:21:25.959Z,99286.97
2023-01-19T05:23:54.073Z,99288.69
2023-01-19T05:26:22.140Z,99291.25
2023-01-19T05:28:51.592Z,99288.59
2023-01-19T05:31:19.896Z,99298.28
2023-01-19T05:33:48.258Z,99284.06
2023-01-19T05:36:16.304Z,99285.94
2023-01-19T05:38:44.484Z,99286.72
2023-01-19T05:41:12.638Z,99279.59
2023-01-19T05:43:40.962Z,99281.31
2023-01-19T05:46:10.451Z,99283.94
2023-01-19T05:48:38.573Z,99282.19
2023-01-19T05:51:07.752Z,99273.44
2023-01-19T05:53:35.871Z,99268.13
2023-01-19T05:56:05.114Z,99276.09
2023-01-19T05:58:34.440Z,99285.00
2023-01-19T06:01:05.454Z,99288.59
2023-01-19T06:03:36.172Z,99284.38
2023-01-19T06:06:05.207Z,99281.91
2023-01-19T06:08:33.307Z,99286.41
2023-01-19T06:11:01.588Z,99277.66
2023-01-19T06:13:29.650Z,99281.41
2023-01-19T06:15:59.176Z,99291.44
2023-01-19T06:18:27.553Z,99299.44
2023-01-19T06:20:59.539Z,99300.53
2023-01-19T06:23:28.019Z,99297.97
2023-01-19T06:25:56.097Z,99300.63
2023-01-19T06:28:25.225Z,99310.31
2023-01-19T06:30:54.213Z,99304.16
2023-01-19T06:33:22.909Z,99305.00
2023-01-19T06:35:51.851Z,99317.34
2023-01-19T06:38:21.606Z,99315.53
2023-01-19T06:40:54.019Z,99326.09
2023-01-19T06:43:22.555Z,99331.41
2023-01-19T06:45:50.677Z,99322.50
2023-01-19T06:48:18.863Z,99334.84
2023-01-19T06:50:47.025Z,99347.22
2023-01-19T06:53:16.568Z,99354.38
2023-01-19T06:55:46.039Z,99354.44
2023-01-19T06:58:14.157Z,99354.53
2023-01-19T07:00:43.006Z,99359.06
2023-01-19T07:03:19.064Z,99349.53
2023-01-19T07:05:47.359Z,99345.22
2023-01-19T07:08:15.968Z,99365.59
2023-01-19T07:11:23.193Z,99361.13
2023-01-19T07:13:33.905Z,99379.72
2023-01-19T07:16:07.353Z,99373.56
2023-01-19T07:18:36.655Z,99372.63
2023-01-19T07:21:04.973Z,99381.47
2023-01-19T07:23:33.194Z,99381.41
2023-01-19T07:26:02.750Z,99384.84
2023-01-19T07:28:31.726Z,99391.88
2023-01-19T07:31:00.010Z,99403.28
2023-01-19T07:33:29.243Z,99402.25
2023-01-19T07:35:57.424Z,99411.00
2023-01-19T07:38:25.515Z,99412.72
2023-01-19T07:40:53.600Z,99423.31
2023-01-19T07:43:23.124Z,99423.31
2023-01-19T07:45:52.201Z,99422.38
2023-01-19T07:48:20.366Z,99437.53
2023-01-19T07:50:48.433Z,99434.91
2023-01-19T07:53:16.864Z,99438.50
2023-01-19T07:55:47.789Z,99446.41
2023-01-19T07:58:15.909Z,99447.34
2023-01-19T08:00:45.469Z,99454.44
2023-01-19T08:03:13.612Z,99449.22
2023-01-19T08:05:42.048Z,99469.53
2023-01-19T08:08:11.538Z,99467.81
2023-01-19T08:10:39.717Z,99469.69
2023-01-19T08:13:08.276Z,99480.53
2023-01-19T08:15:36.738Z,99479.88
2023-01-19T08:18:06.903Z,99480.88
2023-01-19T08:20:35.047Z,99488.06
2023-01-19T08:23:03.691Z,99484.69
2023-01-19T08:25:34.260Z,99484.78
2023-01-19T08:28:02.555Z,99490.09
2023-01-19T08:30:30.660Z,99479.47
2023-01-19T08:33:04.229Z,99489.06
2023-01-19T08:35:34.991Z,99489.06
2023-01-19T08:38:03.264Z,99490.72
2023-01-19T08:40:33.838Z,99491.44
2023-01-19T08:43:06.192Z,99501.13
2023-01-19T08:45:35.030Z,99507.16
2023-01-19T08:48:03.319Z,99509.66
2023-01-19T08:50:34.060Z,99515.78
2023-01-19T08:53:04.512Z,99520.06
2023-01-19T08:55:32.624Z,99524.38
2023-01-19T08:58:01.689Z,99527.84
2023-01-19T09:00:31.481Z,99524.09
2023-01-19T09:03:00.519Z,99532.63
2023-01-19T09:05:28.863Z,99536.03
2023-01-19T09:07:58.549Z,99531.34
2023-01-19T09:10:31.560Z,99539.16
2023-01-19T09:12:59.618Z,99543.47
2023-01-19T09:15:27.848Z,99542.47
2023-01-19T09:17:55.992Z,99547.72
2023-01-19T09:20:24.223Z,99553.91
2023-01-19T09:22:52.348Z,99555.63
2023-01-19T09:25:21.862Z,99557.41
2023-01-19T09:27:49.936Z,99568.03
2023-01-19T09:30:19.171Z,99572.66
2023-01-19T09:32:47.285Z,99568.31
2023-01-19T09:35:15.467Z,99570.97
2023-01-19T09:37:47.496Z,99580.56
2023-01-19T09:40:16.332Z,99583.91
2023-01-19T09:42:51.430Z,99578.38
2023-01-19T09:45:23.915Z,99592.41
2023-01-19T09:47:53.452Z,99594.03
2023-01-19T09:50:26.193Z,99592.88
2023-01-19T09:53:01.339Z,99596.13
2023-01-19T09:55:30.599Z,99589.56
2023-01-19T09:58:00.699Z,99600.78
2023-01-19T10:00:30.101Z,99603.13
2023-01-19T10:03:00.973Z,99608.25
2023-01-19T10:05:32.860Z,99613.41
2023-01-19T10:08:13.628Z,99617.78
2023-01-19T10:10:43.826Z,99618.66
2023-01-19T10:13:22.624Z,99626.53
2023-01-19T10:16:00.537Z,99630.22
2023-01-19T10:18:34.944Z,99624.97
2023-01-19T10:21:06.210Z,99628.50
2023-01-19T10:23:40.792Z,99633.81
2023-01-19T10:26:14.767Z,99626.63
2023-01-19T10:28:45.135Z,99620.28
2023-01-19T10:31:13.470Z,99618.56
2023-01-19T10:33:41.665Z,99626.38
2023-01-19T10:36:17.976Z,99634.38
2023-01-19T10:38:46.608Z,99641.50
2023-01-19T10:41:20.776Z,99643.22
2023-01-19T10:43:51.158Z,99655.53
2023-01-19T10:46:22.703Z,99652.78
2023-01-19T10:48:52.844Z,99657.09
2023-01-19T10:51:21.712Z,99652.47
2023-01-19T10:54:01.504Z,99655.91
2023-01-19T10:56:33.370Z,99658.53
2023-01-19T10:59:04.539Z,99660.34
2023-01-19T11:01:36.985Z,99663.91
2023-01-19T11:04:28.421Z,99668.44
2023-01-19T11:07:13.736Z,99667.59
2023-01-19T11:09:42.064Z,99679.25
2023-01-19T11:12:17.941Z,99682.75
2023-01-19T11:14:48.236Z,99682.06
2023-01-19T11:17:20.447Z,99675.94
2023-01-19T11:19:55.926Z,99683.00
2023-01-19T11:22:28.169Z,99682.25
2023-01-19T11:25:00.072Z,99683.28
2023-01-19T11:27:29.047Z,99680.75
2023-01-19T11:30:05.281Z,99682.66
2023-01-19T11:32:36.952Z,99676.53
2023-01-19T11:35:39.342Z,99679.19
2023-01-19T11:38:14.875Z,99685.44
2023-01-19T11:40:47.669Z,99690.69
2023-01-19T11:43:15.851Z,99696.88
2023-01-19T11:45:46.671Z,99692.41
2023-01-19T11:48:23.362Z,99693.22
2023-01-19T11:50:51.908Z,99687.03
2023-01-19T11:53:24.322Z,99701.91
2023-01-19T11:55:57.322Z,99697.31
2023-01-19T11:58:26.863Z,99704.28
2023-01-19T12:00:58.847Z,99703.19
2023-01-19T12:03:31.398Z,99705.56
2023-01-19T12:06:03.151Z,99700.00
2023-01-19T12:08:35.399Z,99689.28
2023-01-19T12:11:05.124Z,99694.47
2023-01-19T12:13:34.554Z,99693.44
2023-01-19T12:16:07.321Z,99700.53
2023-01-19T12:18:38.279Z,99707.56
2023-01-19T12:21:06.811Z,99704.09
2023-01-19T12:24:01.463Z,99702.38
2023-01-19T12:26:34.347Z,99704.16
2023-01-19T12:29:12.340Z,99703.22
2023-01-19T12:31:43.396Z,99701.44
2023-01-19T12:34:31.397Z,99712.88
2023-01-19T12:37:03.757Z,99704.91
2023-01-19T12:39:33.342Z,99709.28
2023-01-19T12:42:08.211Z,99709.28
2023-01-19T12:44:36.886Z,99711.88
2023-01-19T12:47:22.849Z,99713.59
2023-01-19T12:49:52.807Z,99710.94
2023-01-19T12:52:34.120Z,99713.44
2023-01-19T12:55:18.838Z,99709.84
2023-01-19T12:57:52.407Z,99713.19
2023-01-19T13:00:45.415Z,99718.31
2023-01-19T13:03:45.847Z,99718.00
2023-01-19T13:06:14.037Z,99718.78
2023-01-19T13:08:59.754Z,99715.13
2023-01-19T13:11:32.629Z,99719.34
2023-01-19T13:14:34.826Z,99718.06
2023-01-19T13:17:21.636Z,99704.41
2023-01-19T13:20:02.711Z,99713.75
2023-01-19T13:22:52.863Z,99726.53
2023-01-19T13:25:33.719Z,99716.81
2023-01-19T13:28:02.158Z,99714.13
2023-01-19T13:30:31.258Z,99728.78
2023-01-19T13:33:05.173Z,99720.78
2023-01-19T13:35:34.806Z,99731.53
2023-01-19T13:38:03.678Z,99737.16
2023-01-19T13:40:38.244Z,99747.13
2023-01-19T13:43:15.177Z,99740.16
2023-01-19T13:45:50.707Z,99742.25
2023-01-19T13:48:22.570Z,99746.91
2023-01-19T13:51:06.495Z,99751.44
2023-01-19T13:53:36.560Z,99752.31
2023-01-19T13:56:17.970Z,99758.50
2023-01-19T13:59:00.747Z,99759.38
2023-01-19T14:01:30.226Z,99760.38
2023-01-19T14:03:58.595Z,99768.53
2023-01-19T14:06:36.914Z,99782.00
2023-01-19T14:09:17.878Z,99776.91
2023-01-19T14:11:46.959Z,99786.88
2023-01-19T14:14:28.411Z,99787.88
2023-01-19T14:16:56.545Z,99787.94
2023-01-19T14:19:24.801Z,99801.25
2023-01-19T14:22:02.829Z,99796.00
2023-01-19T14:24:33.061Z,99800.47
2023-01-19T14:27:18.828Z,99801.34
2023-01-19T14:29:50.611Z,99799.53
2023-01-19T14:32:20.627Z,99801.25
2023-01-19T14:34:51.131Z,99806.59
2023-01-19T14:37:26.269Z,99813.81
2023-01-19T14:39:59.237Z,99820.84
2023-01-19T14:42:29.623Z,99820.06
2023-01-19T14:45:00.900Z,99821.88
2023-01-19T14:47:36.275Z,99828.22
2023-01-19T14:50:09.381Z,99836.22
2023-01-19T14:52:42.300Z,99845.94
2023-01-19T14:55:21.398Z,99855.56
2023-01-19T14:57:49.512Z,99854.53
2023-01-19T15:00:19.512Z,99865.19
2023-01-19T15:02:48.006Z,99854.53
2023-01-19T15:05:16.365Z,99857.22
2023-01-19T15:07:47.215Z,99864.28
2023-01-19T15:10:20.672Z,99875.00
2023-01-19T15:12:49.460Z,99871.41
2023-01-19T15:15:19.517Z,99865.28
2023-01-19T15:17:47.848Z,99879.63
2023-01-19T15:20:17.980Z,99874.38
2023-01-19T15:22:48.670Z,99875.38
2023-01-19T15:25:18.023Z,99877.38
2023-01-19T15:27:46.930Z,99872.28
2023-01-19T15:30:18.080Z,99880.44
2023-01-19T15:32:46.262Z,99885.06
2023-01-19T15:35:16.465Z,99888.69
2023-01-19T15:37:44.607Z,99887.84
2023-01-19T15:40:14.886Z,99888.00
2023-01-19T15:42:43.362Z,99894.25
2023-01-19T15:45:35.355Z,99897.13
2023-01-19T15:48:05.195Z,99899.06
2023-01-19T15:50:34.301Z,99897.47
2023-01-19T15:53:02.607Z,99911.81
2023-01-19T15:55:32.077Z,99909.31
2023-01-19T15:58:02.475Z,99907.75
2023-01-19T16:00:31.511Z,99919.47
2023-01-19T16:03:00.547Z,99924.09
2023-01-19T16:05:42.048Z,99923.34
2023-01-19T16:08:11.679Z,99919.09
2023-01-19T16:10:41.705Z,99929.88
2023-01-19T16:13:10.545Z,99941.56
2023-01-19T16:15:39.638Z,99936.41
2023-01-19T16:18:07.909Z,99941.94
2023-01-19T16:20:36.102Z,99937.63
2023-01-19T16:23:19.598Z,99938.66
2023-01-19T16:25:58.281Z,99944.13
2023-01-19T16:28:26.817Z,99946.06
2023-01-19T16:30:55.002Z,99944.41
2023-01-19T16:33:23.306Z,99956.88
2023-01-19T16:35:51.718Z,99953.41
2023-01-19T16:38:20.522Z,99959.75
2023-01-19T16:40:48.600Z,99965.06
2023-01-19T16:43:18.689Z,99965.19
2023-01-19T16:46:01.135Z,99964.34
2023-01-19T16:48:29.788Z,99965.34
2023-01-19T16:51:02.347Z,99968.03
2023-01-19T16:53:31.152Z,99976.16
2023-01-19T16:55:59.269Z,99976.34
2023-01-19T16:58:28.755Z,99974.69
2023-01-19T17:00:57.007Z,99981.03
2023-01-19T17:03:25.216Z,99995.34
2023-01-19T17:05:53.340Z,99991.94
2023-01-19T17:08:21.889Z,99999.13
2023-01-19T17:10:50.019Z,100004.53
2023-01-19T17:13:18.300Z,100007.28
2023-01-19T17:15:47.771Z,100009.13
2023-01-19T17:18:15.906Z,100011.84
2023-01-19T17:20:44.122Z,100009.25
2023-01-19T17:23:12.356Z,100016.38
2023-01-19T17:25:40.458Z,100011.97
2023-01-19T17:28:08.521Z,100023.53
2023-01-19T17:30:36.744Z,100017.44
2023-01-19T17:33:06.255Z,100019.31
2023-01-19T17:35:35.182Z,100021.25
2023-01-19T17:38:03.231Z,100023.97
2023-01-19T17:40:31.748Z,100024.97
2023-01-19T17:42:59.832Z,100032.16
2023-01-19T17:45:27.940Z,100031.41
2023-01-19T17:47:56.030Z,100035.13
2023-01-19T17:50:25.462Z,100048.53
2023-01-19T17:52:53.783Z,100049.50
2023-01-19T17:55:21.854Z,100045.19
2023-01-19T17:57:49.967Z,100053.22
2023-01-19T18:00:19.300Z,100050.63
2023-01-19T18:02:50.737Z,100049.81
2023-01-19T18:05:19.086Z,100057.00
2023-01-19T18:07:48.711Z,100055.28
2023-01-19T18:10:17.445Z,100061.56
2023-01-19T18:12:45.660Z,100067.88
2023-01-19T18:15:16.642Z,100059.97
2023-01-19T18:17:45.147Z,100060.03
2023-01-19T18:20:13.812Z,100063.63
2023-01-19T18:22:42.169Z,100069.00
2023-01-19T18:25:11.878Z,100066.34
2023-01-19T18:27:39.961Z,100065.50
2023-01-19T18:30:09.373Z,100065.50
2023-01-19T18:32:37.467Z,100067.34
2023-01-19T18:35:06.389Z,100075.31
2023-01-19T18:37:34.462Z,100070.88
2023-01-19T18:40:04.349Z,100075.25
2023-01-19T18:42:34.997Z,100073.47
2023-01-19T18:45:03.146Z,100076.13
2023-01-19T18:47:31.299Z,100072.66
2023-01-19T18:49:59.366Z,100071.78
2023-01-19T18:52:27.442Z,100085.13
2023-01-19T18:54:55.521Z,100081.66
2023-01-19T18:57:23.634Z,100080.81
2023-01-19T18:59:53.177Z,100089.63
2023-01-19T19:02:21.459Z,100098.53
2023-01-19T19:04:49.557Z,100098.53
2023-01-19T19:07:17.729Z,100104.75
2023-01-19T19:09:45.769Z,100102.09
2023-01-19T19:12:13.869Z,100110.06
2023-01-19T19:14:41.967Z,100109.94
2023-01-19T19:17:11.459Z,100110.75
2023-01-19T19:19:39.581Z,100106.31
2023-01-19T19:22:07.653Z,100113.41
2023-01-19T19:24:35.816Z,100103.78
2023-01-19T19:27:04.000Z,100116.25
2023-01-19T19:29:33.588Z,100121.56
2023-01-19T19:32:01.725Z,100120.78
2023-01-19T19:34:31.510Z,100118.19
2023-01-19T19:37:01.178Z,100130.66
2023-01-19T19:39:29.675Z,100129.78
2023-01-19T19:41:57.762Z,100133.34
2023-01-19T19:44:25.846Z,100124.66
2023-01-19T19:46:54.000Z,100128.28
2023-01-19T19:49:22.063Z,100126.56
2023-01-19T19:51:51.661Z,100131.94
2023-01-19T19:54:19.963Z,100130.22
2023-01-19T19:56:50.561Z,100126.75
2023-01-19T19:59:18.874Z,100137.38
2023-01-19T20:01:47.229Z,100132.13
2023-01-19T20:04:19.935Z,100131.25
2023-01-19T20:06:48.813Z,100133.84
2023-01-19T20:09:18.457Z,100130.25
2023-01-19T20:11:49.042Z,100132.97
2023-01-19T20:14:17.243Z,100137.41
2023-01-19T20:16:45.611Z,100133.91
2023-01-19T20:19:13.717Z,100133.91
2023-01-19T20:21:43.032Z,100137.47
2023-01-19T20:24:14.268Z,100141.91
2023-01-19T20:26:46.037Z,100141.06
2023-01-19T20:29:14.275Z,100145.50
2023-01-19T20:31:45.401Z,100143.66
2023-01-19T20:34:15.108Z,100153.41
2023-01-19T20:36:44.306Z,100164.94
2023-01-19T20:39:12.769Z,100172.03
2023-01-19T20:41:45.072Z,100173.81
2023-01-19T20:44:16.926Z,100170.31
2023-01-19T20:46:45.025Z,100180.06
2023-01-19T20:49:13.445Z,100182.72
2023-01-19T20:51:43.467Z,100181.78
2023-01-19T20:54:11.729Z,100178.22
2023-01-19T20:56:41.230Z,100189.75
2023-01-19T20:59:09.515Z,100197.59
2023-01-19T21:01:39.876Z,100191.38
2023-01-19T21:04:08.357Z,100196.63
2023-01-19T21:06:36.783Z,100207.13
2023-01-19T21:09:05.310Z,100197.44
2023-01-19T21:11:33.441Z,100200.03
2023-01-19T21:14:01.562Z,100210.66
2023-01-19T21:16:31.622Z,100204.53
2023-01-19T21:19:01.154Z,100208.06
2023-01-19T21:21:31.264Z,100214.22
2023-01-19T21:24:00.708Z,100211.56
2023-01-19T21:26:30.260Z,100224.78
2023-01-19T21:28:58.703Z,100217.69
2023-01-19T21:31:28.192Z,100218.56
2023-01-19T21:33:56.723Z,100218.56
2023-01-19T21:36:26.561Z,100223.94
2023-01-19T21:38:55.705Z,100224.78
2023-01-19T21:41:23.955Z,100223.94
2023-01-19T21:43:52.078Z,100232.81
2023-01-19T21:46:21.997Z,100238.13
2023-01-19T21:48:50.376Z,100242.56
2023-01-19T21:51:18.460Z,100239.97
2023-01-19T21:53:50.081Z,100240.78
2023-01-19T21:56:18.144Z,100241.59
2023-01-19T21:58:47.147Z,100240.66
2023-01-19T22:01:15.603Z,100244.97
2023-01-19T22:03:43.835Z,100244.06
2023-01-19T22:06:13.733Z,100246.59
2023-01-19T22:08:42.604Z,100246.50
2023-01-19T22:11:13.445Z,100258.81
2023-01-19T22:13:42.306Z,100256.97
2023-01-19T22:16:12.104Z,100262.19
2023-01-19T22:18:41.515Z,100270.91
2023-01-19T22:21:10.957Z,100268.19
2023-01-19T22:23:39.685Z,100272.56
2023-01-19T22:26:08.738Z,100277.88
2023-01-19T22:28:38.667Z,100275.16
2023-01-19T22:31:08.703Z,100282.16
2023-01-19T22:33:36.958Z,100287.47
2023-01-19T22:36:13.240Z,100282.19
2023-01-19T22:38:41.743Z,100288.38
2023-01-19T22:41:14.553Z,100290.22
2023-01-19T22:43:44.462Z,100289.44
2023-01-19T22:46:12.883Z,100290.31
2023-01-19T22:48:41.545Z,100287.72
2023-01-19T22:51:09.968Z,100285.91
2023-01-19T22:53:38.062Z,100287.72
2023-01-19T22:56:14.331Z,100292.16
2023-01-19T22:58:45.207Z,100294.81
2023-01-19T23:01:14.901Z,100292.16
2023-01-19T23:03:43.276Z,100299.31
2023-01-19T23:06:12.845Z,100300.22
2023-01-19T23:08:41.753Z,100299.31
2023-01-19T23:11:12.156Z,100308.13
2023-01-19T23:13:40.376Z,100301.03
2023-01-19T23:16:10.971Z,100308.19
2023-01-19T23:18:39.147Z,100313.44
2023-01-19T23:21:08.931Z,100317.84
2023-01-19T23:23:37.447Z,100314.31
2023-01-19T23:26:07.632Z,100316.97
2023-01-19T23:28:36.864Z,100323.16
2023-01-19T23:31:16.332Z,100331.13
2023-01-19T23:33:44.631Z,100332.84
2023-01-19T23:36:12.971Z,100323.09
2023-01-19T23:38:41.454Z,100327.47
2023-01-19T23:41:09.876Z,100328.28
2023-01-19T23:43:37.946Z,100339.81
2023-01-19T23:46:07.179Z,100338.03
2023-01-19T23:48:37.039Z,100343.34
2023-01-19T23:51:07.318Z,100348.66
2023-01-19T23:53:35.403Z,100348.56
2023-01-19T23:56:10.990Z,100340.53
2023-01-19T23:58:39.269Z,100349.31
